Robins Air Force Base Warner Robins US
ICAO: KWRB
IATA: WRB
Category: Large
Scheduled Services: No

Elevation: 294 ft
TransAlt. 18000 ft.

Airport Communications:
ATLANTA APP/DEP:119.6
ATIS:119.475
ACC COMD POST:31.1
GND:121.85
MAINT CTL CNTR:22.592
AFRC COMD POST:37.217
PMSV METRO:34.985
116 ANG OPS:29.352
PTD:134.1
TWR:133.225

KWRB Zoom In..

If you have problems with the map follow the link
https://www.worldairports.se/pages/airport.php?
ICAO=KWRB

Runways:

(A) RW 15 length 12001 ft width 300 ft
ILS 111.70 / hdg 146

(B) RW 33 length 12001 ft width 300 ft
ILS 110.10 / hdg 326

Location; KWRB
Day. 14 / Time. 17.56 Zulu
* Altimeter: 29.79
* Temperature: 13° c. 55.4°f.
* Wind from: 290° Speed 14 kn.
Dewpoint: 07° c.
Visibility: 10 Statute Miles.
Clouds: Broken 2600 ft.
Clouds: Broken 3200 ft.

KWRB 141756Z 29014KT 10SM BKN026 BKN032 13/07 A2979 RMK AO2A SLP091 T01300068 10132 20078 56003


Wind From 290°
Speed 14 kn.

 
 
jpsmedia worldairports.se 2019   terms of use